Ball Bluff, Minnesota
Current Conditions -  °F | °C
As of 5:26 PM on Tuesday 25 Nov 2014 (Local Time) from KHZX Reporting Station
Overcast Overcast  
Wind Chill: 19°   Ceiling: 2000
Heat Index: 19°   Visibility: 10mi
Dew Point: 10°   Wind: 0mph
Humidity: 68%   Direction: NA
Pressure: 29.98"   Gusts: NA
Location:  46.9333°N, 93.1876°W
Report Text: KHZX 252326Z AUTO 00000KT 10SM OVC020 M07/M12 A2998 RMK AO2
Loading
Personal Weather Stations






























Interactive Weather Map New forecast layout! Learn more

10-Day Weather Forecast

Advertisements
Track Severe Weather on mobile